sensor_id;sensor_type;location;lat;lon;timestamp;pressure;altitude;pressure_sealevel;temperature;humidity
71772;BME280;59606;52.138;5.424;2022-07-29T00:02:13;101906.28;;;17.52;58.97
71772;BME280;59606;52.138;5.424;2022-07-29T00:04:40;101904.88;;;17.46;59.04
71772;BME280;59606;52.138;5.424;2022-07-29T00:07:06;101900.78;;;17.42;59.32
71772;BME280;59606;52.138;5.424;2022-07-29T00:09:33;101893.06;;;17.39;59.18
71772;BME280;59606;52.138;5.424;2022-07-29T00:12:18;101892.53;;;17.34;59.32
71772;BME280;59606;52.138;5.424;2022-07-29T00:14:55;101890.84;;;17.33;59.36
71772;BME280;59606;52.138;5.424;2022-07-29T00:17:23;101884.84;;;17.31;59.38
71772;BME280;59606;52.138;5.424;2022-07-29T00:19:50;101881.56;;;17.27;59.54
71772;BME280;59606;52.138;5.424;2022-07-29T00:22:16;101884.22;;;17.27;59.67
71772;BME280;59606;52.138;5.424;2022-07-29T00:24:43;101883.34;;;17.27;59.82
71772;BME280;59606;52.138;5.424;2022-07-29T00:27:09;101879.97;;;17.25;60.10
71772;BME280;59606;52.138;5.424;2022-07-29T00:29:36;101881.97;;;17.21;60.01
71772;BME280;59606;52.138;5.424;2022-07-29T00:32:02;101878.69;;;17.17;60.28
71772;BME280;59606;52.138;5.424;2022-07-29T00:34:29;101872.16;;;17.10;60.12
71772;BME280;59606;52.138;5.424;2022-07-29T00:37:14;101874.22;;;17.05;60.09
71772;BME280;59606;52.138;5.424;2022-07-29T00:39:41;101869.09;;;17.04;60.32
71772;BME280;59606;52.138;5.424;2022-07-29T00:42:07;101859.59;;;17.01;60.50
71772;BME280;59606;52.138;5.424;2022-07-29T00:44:42;101859.59;;;17.01;61.12
71772;BME280;59606;52.138;5.424;2022-07-29T00:47:10;101856.97;;;17.01;60.80
71772;BME280;59606;52.138;5.424;2022-07-29T00:49:39;101855.56;;;16.95;60.61
71772;BME280;59606;52.138;5.424;2022-07-29T00:52:06;101857.47;;;16.93;61.05
71772;BME280;59606;52.138;5.424;2022-07-29T00:54:34;101862.81;;;16.92;60.76
71772;BME280;59606;52.138;5.424;2022-07-29T00:57:05;101852.69;;;16.86;60.98
71772;BME280;59606;52.138;5.424;2022-07-29T00:59:32;101847.63;;;16.83;61.24
71772;BME280;59606;52.138;5.424;2022-07-29T01:02:01;101844.25;;;16.81;61.25
71772;BME280;59606;52.138;5.424;2022-07-29T01:04:28;101852.16;;;16.81;61.69
71772;BME280;59606;52.138;5.424;2022-07-29T01:06:56;101846.13;;;16.79;61.45
71772;BME280;59606;52.138;5.424;2022-07-29T01:09:23;101840.97;;;16.77;61.49
71772;BME280;59606;52.138;5.424;2022-07-29T01:12:10;101842.66;;;16.78;61.63
71772;BME280;59606;52.138;5.424;2022-07-29T01:14:37;101852.44;;;16.76;61.48
71772;BME280;59606;52.138;5.424;2022-07-29T01:22:40;101834.41;;;16.70;61.59
71772;BME280;59606;52.138;5.424;2022-07-29T01:30:51;101830.75;;;16.58;62.14
71772;BME280;59606;52.138;5.424;2022-07-29T01:33:20;101832.53;;;16.58;61.76
71772;BME280;59606;52.138;5.424;2022-07-29T01:36:22;101834.72;;;16.51;62.02
71772;BME280;59606;52.138;5.424;2022-07-29T01:38:57;101838.50;;;16.47;62.24
71772;BME280;59606;52.138;5.424;2022-07-29T01:41:26;101834.16;;;16.46;62.26
71772;BME280;59606;52.138;5.424;2022-07-29T01:43:59;101841.31;;;16.44;62.44
71772;BME280;59606;52.138;5.424;2022-07-29T01:46:33;101845.75;;;16.43;62.68
71772;BME280;59606;52.138;5.424;2022-07-29T01:49:13;101847.63;;;16.41;62.28
71772;BME280;59606;52.138;5.424;2022-07-29T01:51:47;101846.84;;;16.39;62.49
71772;BME280;59606;52.138;5.424;2022-07-29T01:54:21;101836.63;;;16.35;62.54
71772;BME280;59606;52.138;5.424;2022-07-29T01:56:53;101840.94;;;16.36;62.53
71772;BME280;59606;52.138;5.424;2022-07-29T01:59:22;101841.91;;;16.35;62.54
71772;BME280;59606;52.138;5.424;2022-07-29T02:01:52;101836.63;;;16.35;62.31
71772;BME280;59606;52.138;5.424;2022-07-29T02:04:20;101832.41;;;16.32;62.62
71772;BME280;59606;52.138;5.424;2022-07-29T02:07:00;101833.44;;;16.30;62.62
71772;BME280;59606;52.138;5.424;2022-07-29T02:09:29;101838.81;;;16.28;62.90
71772;BME280;59606;52.138;5.424;2022-07-29T02:11:57;101835.34;;;16.27;63.15
71772;BME280;59606;52.138;5.424;2022-07-29T02:14:26;101842.28;;;16.29;62.92
71772;BME280;59606;52.138;5.424;2022-07-29T02:16:57;101845.03;;;16.27;63.20
71772;BME280;59606;52.138;5.424;2022-07-29T02:19:26;101842.28;;;16.29;62.95
71772;BME280;59606;52.138;5.424;2022-07-29T02:21:55;101828.28;;;16.28;63.09
71772;BME280;59606;52.138;5.424;2022-07-29T02:24:23;101834.38;;;16.29;62.98
71772;BME280;59606;52.138;5.424;2022-07-29T02:26:52;101831.03;;;16.26;62.89
71772;BME280;59606;52.138;5.424;2022-07-29T02:29:21;101829.31;;;16.25;63.19
71772;BME280;59606;52.138;5.424;2022-07-29T02:31:49;101829.31;;;16.25;62.96
71772;BME280;59606;52.138;5.424;2022-07-29T02:34:18;101822.47;;;16.23;63.38
71772;BME280;59606;52.138;5.424;2022-07-29T02:36:47;101827.00;;;16.21;63.31
71772;BME280;59606;52.138;5.424;2022-07-29T02:39:15;101827.94;;;16.20;63.28
71772;BME280;59606;52.138;5.424;2022-07-29T02:41:44;101827.06;;;16.19;63.48
71772;BME280;59606;52.138;5.424;2022-07-29T02:44:18;101825.41;;;16.18;63.07
71772;BME280;59606;52.138;5.424;2022-07-29T02:47:10;101821.16;;;16.16;63.05
71772;BME280;59606;52.138;5.424;2022-07-29T02:52:47;101817.81;;;16.14;63.47
71772;BME280;59606;52.138;5.424;2022-07-29T02:56:04;101817.03;;;16.12;63.52
71772;BME280;59606;52.138;5.424;2022-07-29T03:01:07;101821.66;;;16.08;63.62
71772;BME280;59606;52.138;5.424;2022-07-29T03:03:37;101820.88;;;16.06;63.78
71772;BME280;59606;52.138;5.424;2022-07-29T03:06:06;101822.59;;;16.07;64.06
71772;BME280;59606;52.138;5.424;2022-07-29T03:08:34;101826.16;;;16.06;63.76
71772;BME280;59606;52.138;5.424;2022-07-29T03:11:01;101821.84;;;16.05;63.96
71772;BME280;59606;52.138;5.424;2022-07-29T03:13:29;101820.16;;;16.04;63.69
71772;BME280;59606;52.138;5.424;2022-07-29T03:15:57;101818.47;;;16.03;63.56
71772;BME280;59606;52.138;5.424;2022-07-29T03:18:24;101812.53;;;15.99;63.77
71772;BME280;59606;52.138;5.424;2022-07-29T03:20:52;101817.78;;;15.99;64.25
71772;BME280;59606;52.138;5.424;2022-07-29T03:23:19;101808.22;;;15.98;63.99
71772;BME280;59606;52.138;5.424;2022-07-29T03:25:48;101810.03;;;15.98;64.00
71772;BME280;59606;52.138;5.424;2022-07-29T03:28:14;101807.50;;;15.96;64.12
71772;BME280;59606;52.138;5.424;2022-07-29T03:30:41;101808.41;;;15.95;64.05
71772;BME280;59606;52.138;5.424;2022-07-29T03:33:10;101801.59;;;15.93;64.21
71772;BME280;59606;52.138;5.424;2022-07-29T03:35:39;101801.59;;;15.93;64.02
71772;BME280;59606;52.138;5.424;2022-07-29T03:38:06;101807.75;;;15.92;64.33
71772;BME280;59606;52.138;5.424;2022-07-29T03:40:56;101800.91;;;15.89;64.48
71772;BME280;59606;52.138;5.424;2022-07-29T03:43:27;101795.00;;;15.86;64.29
71772;BME280;59606;52.138;5.424;2022-07-29T03:45:57;101798.56;;;15.85;64.42
71772;BME280;59606;52.138;5.424;2022-07-29T03:48:25;101791.63;;;15.84;64.85
71772;BME280;59606;52.138;5.424;2022-07-29T03:50:52;101783.66;;;15.85;64.61
71772;BME280;59606;52.138;5.424;2022-07-29T03:53:19;101786.47;;;15.82;64.56
71772;BME280;59606;52.138;5.424;2022-07-29T03:55:52;101786.56;;;15.81;64.54
71772;BME280;59606;52.138;5.424;2022-07-29T03:58:19;101787.59;;;15.78;65.09
71772;BME280;59606;52.138;5.424;2022-07-29T04:00:46;101784.13;;;15.77;64.65
71772;BME280;59606;52.138;5.424;2022-07-29T04:03:14;101786.00;;;15.75;64.68
71772;BME280;59606;52.138;5.424;2022-07-29T04:05:41;101793.03;;;15.75;64.88
71772;BME280;59606;52.138;5.424;2022-07-29T04:08:07;101785.16;;;15.75;64.94
71772;BME280;59606;52.138;5.424;2022-07-29T04:10:34;101787.88;;;15.73;64.97
71772;BME280;59606;52.138;5.424;2022-07-29T04:13:01;101793.88;;;15.75;64.99
71772;BME280;59606;52.138;5.424;2022-07-29T04:15:27;101782.63;;;15.73;65.35
71772;BME280;59606;52.138;5.424;2022-07-29T04:17:57;101783.56;;;15.72;65.04
71772;BME280;59606;52.138;5.424;2022-07-29T04:20:23;101780.00;;;15.73;65.10
71772;BME280;59606;52.138;5.424;2022-07-29T04:22:50;101795.00;;;15.71;65.06
71772;BME280;59606;52.138;5.424;2022-07-29T04:25:16;101793.41;;;15.69;65.38
71772;BME280;59606;52.138;5.424;2022-07-29T04:27:43;101778.53;;;15.69;65.50
71772;BME280;59606;52.138;5.424;2022-07-29T04:30:27;101782.06;;;15.68;65.32
71772;BME280;59606;52.138;5.424;2022-07-29T04:32:53;101776.91;;;15.67;65.06
71772;BME280;59606;52.138;5.424;2022-07-29T04:35:20;101784.84;;;15.65;65.31
71772;BME280;59606;52.138;5.424;2022-07-29T04:37:47;101786.63;;;15.65;65.55
71772;BME280;59606;52.138;5.424;2022-07-29T04:40:13;101780.44;;;15.66;65.39
71772;BME280;59606;52.138;5.424;2022-07-29T04:42:40;101782.41;;;15.62;65.82
71772;BME280;59606;52.138;5.424;2022-07-29T04:45:12;101787.84;;;15.59;66.02
71772;BME280;59606;52.138;5.424;2022-07-29T04:47:39;101788.59;;;15.61;65.59
71772;BME280;59606;52.138;5.424;2022-07-29T04:50:08;101787.75;;;15.61;65.82
71772;BME280;59606;52.138;5.424;2022-07-29T04:52:34;101793.00;;;15.61;65.72
71772;BME280;59606;52.138;5.424;2022-07-29T04:55:02;101791.22;;;15.61;65.63
71772;BME280;59606;52.138;5.424;2022-07-29T04:57:29;101788.59;;;15.61;65.82
71772;BME280;59606;52.138;5.424;2022-07-29T04:59:56;101788.53;;;15.63;65.71
71772;BME280;59606;52.138;5.424;2022-07-29T05:02:22;101780.66;;;15.63;65.71
71772;BME280;59606;52.138;5.424;2022-07-29T05:04:49;101781.66;;;15.60;65.77
71772;BME280;59606;52.138;5.424;2022-07-29T05:07:15;101783.44;;;15.60;65.58
71772;BME280;59606;52.138;5.424;2022-07-29T05:09:42;101783.53;;;15.58;65.69
71772;BME280;59606;52.138;5.424;2022-07-29T05:12:08;101787.00;;;15.59;65.86
71772;BME280;59606;52.138;5.424;2022-07-29T05:14:36;101791.34;;;15.60;65.80
71772;BME280;59606;52.138;5.424;2022-07-29T05:17:02;101786.09;;;15.60;66.19
71772;BME280;59606;52.138;5.424;2022-07-29T05:19:29;101785.03;;;15.62;66.13
71772;BME280;59606;52.138;5.424;2022-07-29T05:21:55;101786.72;;;15.63;66.22
71772;BME280;59606;52.138;5.424;2022-07-29T05:24:22;101783.97;;;15.66;66.19
71772;BME280;59606;52.138;5.424;2022-07-29T05:26:48;101788.16;;;15.69;66.17
71772;BME280;59606;52.138;5.424;2022-07-29T05:29:14;101795.13;;;15.70;66.14
71772;BME280;59606;52.138;5.424;2022-07-29T05:32:02;101796.81;;;15.71;65.85
71772;BME280;59606;52.138;5.424;2022-07-29T05:34:28;101801.88;;;15.74;65.75
71772;BME280;59606;52.138;5.424;2022-07-29T05:36:55;101807.78;;;15.77;65.69
71772;BME280;59606;52.138;5.424;2022-07-29T05:39:22;101812.75;;;15.82;65.51
71772;BME280;59606;52.138;5.424;2022-07-29T05:42:09;101809.94;;;15.85;65.47
71772;BME280;59606;52.138;5.424;2022-07-29T05:44:37;101808.91;;;15.88;65.60
71772;BME280;59606;52.138;5.424;2022-07-29T05:47:04;101808.53;;;15.94;65.55
71772;BME280;59606;52.138;5.424;2022-07-29T05:49:31;101810.03;;;15.98;65.47
71772;BME280;59606;52.138;5.424;2022-07-29T05:51:58;101813.41;;;16.00;65.22
71772;BME280;59606;52.138;5.424;2022-07-29T05:54:24;101806.81;;;16.07;65.42
71772;BME280;59606;52.138;5.424;2022-07-29T05:56:51;101807.28;;;16.14;65.29
71772;BME280;59606;52.138;5.424;2022-07-29T05:59:18;101820.69;;;16.23;65.10
71772;BME280;59606;52.138;5.424;2022-07-29T06:01:44;101816.75;;;16.31;64.60
71772;BME280;59606;52.138;5.424;2022-07-29T06:04:11;101822.06;;;16.43;65.21
71772;BME280;59606;52.138;5.424;2022-07-29T06:06:38;101815.72;;;16.60;64.83
71772;BME280;59606;52.138;5.424;2022-07-29T06:09:04;101809.94;;;16.82;64.86
71772;BME280;59606;52.138;5.424;2022-07-29T06:11:38;101815.53;;;16.90;62.80
71772;BME280;59606;52.138;5.424;2022-07-29T06:14:05;101821.41;;;16.81;63.10
71772;BME280;59606;52.138;5.424;2022-07-29T06:16:31;101812.56;;;16.82;63.17
71772;BME280;59606;52.138;5.424;2022-07-29T06:18:58;101814.69;;;16.90;62.79
71772;BME280;59606;52.138;5.424;2022-07-29T06:21:24;101811.97;;;16.91;61.96
71772;BME280;59606;52.138;5.424;2022-07-29T06:23:51;101824.38;;;16.89;62.52
71772;BME280;59606;52.138;5.424;2022-07-29T06:26:17;101834.69;;;16.92;62.33
71772;BME280;59606;52.138;5.424;2022-07-29T06:28:56;101846.06;;;16.93;62.58
71772;BME280;59606;52.138;5.424;2022-07-29T06:31:22;101858.59;;;16.89;62.69
71772;BME280;59606;52.138;5.424;2022-07-29T06:33:49;101856.47;;;16.82;62.69
71772;BME280;59606;52.138;5.424;2022-07-29T06:36:15;101854.38;;;16.72;62.91
71772;BME280;59606;52.138;5.424;2022-07-29T06:38:42;101852.59;;;16.73;63.30
71772;BME280;59606;52.138;5.424;2022-07-29T06:41:16;101848.41;;;16.70;63.32
71772;BME280;59606;52.138;5.424;2022-07-29T06:43:44;101846.03;;;16.66;63.31
71772;BME280;59606;52.138;5.424;2022-07-29T06:46:21;101849.78;;;16.76;63.85
71772;BME280;59606;52.138;5.424;2022-07-29T06:48:48;101845.22;;;16.92;63.23
71772;BME280;59606;52.138;5.424;2022-07-29T06:51:15;101838.22;;;17.06;62.97
71772;BME280;59606;52.138;5.424;2022-07-29T06:53:48;101842.44;;;17.08;62.60
71772;BME280;59606;52.138;5.424;2022-07-29T06:56:27;101856.34;;;17.10;62.78
71772;BME280;59606;52.138;5.424;2022-07-29T06:58:53;101862.78;;;17.19;62.76
71772;BME280;59606;52.138;5.424;2022-07-29T07:01:20;101847.34;;;17.27;61.99
71772;BME280;59606;52.138;5.424;2022-07-29T07:03:47;101843.66;;;17.42;61.91
71772;BME280;59606;52.138;5.424;2022-07-29T07:06:13;101848.81;;;17.57;61.10
71772;BME280;59606;52.138;5.424;2022-07-29T07:08:40;101847.69;;;17.61;60.86
71772;BME280;59606;52.138;5.424;2022-07-29T07:11:07;101854.44;;;17.65;61.46
71772;BME280;59606;52.138;5.424;2022-07-29T07:13:33;101853.50;;;17.79;62.10
71772;BME280;59606;52.138;5.424;2022-07-29T07:16:02;101848.31;;;18.03;61.40
71772;BME280;59606;52.138;5.424;2022-07-29T07:18:29;101852.94;;;18.25;60.18
71772;BME280;59606;52.138;5.424;2022-07-29T07:20:56;101853.53;;;18.41;61.07
71772;BME280;59606;52.138;5.424;2022-07-29T07:23:23;101855.06;;;18.44;58.90
71772;BME280;59606;52.138;5.424;2022-07-29T07:25:49;101857.91;;;18.53;59.71
71772;BME280;59606;52.138;5.424;2022-07-29T07:28:16;101851.22;;;18.73;58.90
71772;BME280;59606;52.138;5.424;2022-07-29T07:30:42;101848.50;;;18.86;60.49
71772;BME280;59606;52.138;5.424;2022-07-29T07:33:10;101848.00;;;19.05;58.14
71772;BME280;59606;52.138;5.424;2022-07-29T07:35:36;101838.50;;;19.02;57.55
71772;BME280;59606;52.138;5.424;2022-07-29T07:38:03;101842.97;;;19.13;57.28
71772;BME280;59606;52.138;5.424;2022-07-29T07:40:29;101836.16;;;19.22;57.54
71772;BME280;59606;52.138;5.424;2022-07-29T07:42:56;101834.63;;;19.30;57.20
71772;BME280;59606;52.138;5.424;2022-07-29T07:45:23;101830.16;;;19.31;58.15
71772;BME280;59606;52.138;5.424;2022-07-29T07:47:50;101821.41;;;19.30;56.47
71772;BME280;59606;52.138;5.424;2022-07-29T07:50:16;101822.13;;;19.33;57.05
71772;BME280;59606;52.138;5.424;2022-07-29T07:52:50;101832.81;;;19.31;57.27
71772;BME280;59606;52.138;5.424;2022-07-29T07:55:18;101828.78;;;19.49;57.53
71772;BME280;59606;52.138;5.424;2022-07-29T07:57:46;101827.50;;;19.77;59.42
71772;BME280;59606;52.138;5.424;2022-07-29T08:00:14;101824.00;;;19.88;55.27
71772;BME280;59606;52.138;5.424;2022-07-29T08:02:42;101815.00;;;19.80;56.94
71772;BME280;59606;52.138;5.424;2022-07-29T08:05:12;101818.34;;;19.82;55.54
71772;BME280;59606;52.138;5.424;2022-07-29T08:07:45;101809.59;;;19.70;55.19
71772;BME280;59606;52.138;5.424;2022-07-29T08:10:13;101820.19;;;19.70;56.72
71772;BME280;59606;52.138;5.424;2022-07-29T08:12:41;101809.13;;;19.76;55.65
71772;BME280;59606;52.138;5.424;2022-07-29T08:15:08;101813.31;;;19.67;56.93
71772;BME280;59606;52.138;5.424;2022-07-29T08:17:35;101807.31;;;19.65;56.78
71772;BME280;59606;52.138;5.424;2022-07-29T08:20:03;101808.88;;;19.68;55.75
71772;BME280;59606;52.138;5.424;2022-07-29T08:22:30;101817.38;;;19.60;55.51
71772;BME280;59606;52.138;5.424;2022-07-29T08:24:56;101813.88;;;19.60;56.43
71772;BME280;59606;52.138;5.424;2022-07-29T08:27:23;101820.91;;;19.72;57.42
71772;BME280;59606;52.138;5.424;2022-07-29T08:30:09;101818.63;;;19.90;57.43
71772;BME280;59606;52.138;5.424;2022-07-29T08:32:36;101815.00;;;20.13;55.31
71772;BME280;59606;52.138;5.424;2022-07-29T08:35:23;101814.84;;;20.26;55.41
71772;BME280;59606;52.138;5.424;2022-07-29T08:37:50;101813.75;;;20.40;53.79
71772;BME280;59606;52.138;5.424;2022-07-29T08:40:16;101815.66;;;20.38;54.31
71772;BME280;59606;52.138;5.424;2022-07-29T08:42:43;101824.31;;;20.40;55.19
71772;BME280;59606;52.138;5.424;2022-07-29T08:45:09;101821.78;;;20.61;53.75
71772;BME280;59606;52.138;5.424;2022-07-29T08:47:38;101816.38;;;20.62;53.20
71772;BME280;59606;52.138;5.424;2022-07-29T08:50:09;101827.59;;;20.76;52.95
71772;BME280;59606;52.138;5.424;2022-07-29T08:52:39;101817.72;;;20.78;53.78
71772;BME280;59606;52.138;5.424;2022-07-29T08:55:07;101822.03;;;20.90;54.06
71772;BME280;59606;52.138;5.424;2022-07-29T08:57:34;101828.81;;;21.04;54.11
71772;BME280;59606;52.138;5.424;2022-07-29T09:00:06;101828.19;;;21.11;55.33
71772;BME280;59606;52.138;5.424;2022-07-29T09:02:41;101829.16;;;21.10;53.25
71772;BME280;59606;52.138;5.424;2022-07-29T09:05:13;101825.09;;;21.06;52.82
71772;BME280;59606;52.138;5.424;2022-07-29T09:07:40;101830.09;;;20.88;51.65
71772;BME280;59606;52.138;5.424;2022-07-29T09:10:09;101826.34;;;20.91;52.49
71772;BME280;59606;52.138;5.424;2022-07-29T09:12:36;101824.09;;;21.07;52.22
71772;BME280;59606;52.138;5.424;2022-07-29T09:15:04;101819.63;;;21.29;52.81
71772;BME280;59606;52.138;5.424;2022-07-29T09:17:41;101817.91;;;21.60;51.96
71772;BME280;59606;52.138;5.424;2022-07-29T09:20:10;101807.25;;;21.81;52.62
71772;BME280;59606;52.138;5.424;2022-07-29T09:22:37;101809.97;;;22.00;50.86
71772;BME280;59606;52.138;5.424;2022-07-29T09:25:07;101817.81;;;22.11;52.99
71772;BME280;59606;52.138;5.424;2022-07-29T09:27:34;101815.03;;;22.13;50.29
71772;BME280;59606;52.138;5.424;2022-07-29T09:30:09;101816.53;;;22.06;50.75
71772;BME280;59606;52.138;5.424;2022-07-29T09:32:54;101824.34;;;21.98;51.99
71772;BME280;59606;52.138;5.424;2022-07-29T09:35:25;101815.44;;;22.08;51.32
71772;BME280;59606;52.138;5.424;2022-07-29T09:37:53;101824.88;;;22.32;47.81
71772;BME280;59606;52.138;5.424;2022-07-29T09:40:25;101828.94;;;22.36;50.13
71772;BME280;59606;52.138;5.424;2022-07-29T09:42:53;101818.31;;;22.36;46.96
71772;BME280;59606;52.138;5.424;2022-07-29T09:45:33;101815.97;;;22.52;47.03
71772;BME280;59606;52.138;5.424;2022-07-29T09:48:13;101811.91;;;22.48;47.88
71772;BME280;59606;52.138;5.424;2022-07-29T09:50:40;101813.44;;;22.41;47.66
71772;BME280;59606;52.138;5.424;2022-07-29T09:53:08;101803.41;;;22.54;47.53
71772;BME280;59606;52.138;5.424;2022-07-29T09:55:51;101805.19;;;22.34;46.75
71772;BME280;59606;52.138;5.424;2022-07-29T09:58:19;101806.44;;;22.21;48.61
71772;BME280;59606;52.138;5.424;2022-07-29T10:00:47;101813.34;;;22.12;47.82
71772;BME280;59606;52.138;5.424;2022-07-29T10:03:14;101809.34;;;22.18;48.25
71772;BME280;59606;52.138;5.424;2022-07-29T10:05:42;101811.88;;;22.29;48.54
71772;BME280;59606;52.138;5.424;2022-07-29T10:08:10;101814.13;;;22.24;49.95
71772;BME280;59606;52.138;5.424;2022-07-29T10:10:40;101807.97;;;22.23;49.25
71772;BME280;59606;52.138;5.424;2022-07-29T10:13:09;101816.34;;;22.19;49.27
71772;BME280;59606;52.138;5.424;2022-07-29T10:15:43;101812.06;;;22.06;48.92
71772;BME280;59606;52.138;5.424;2022-07-29T10:18:13;101820.59;;;22.00;48.12
71772;BME280;59606;52.138;5.424;2022-07-29T10:20:40;101820.13;;;21.95;48.82
71772;BME280;59606;52.138;5.424;2022-07-29T10:23:08;101823.78;;;21.94;48.48
71772;BME280;59606;52.138;5.424;2022-07-29T10:25:35;101817.06;;;21.90;49.98
71772;BME280;59606;52.138;5.424;2022-07-29T10:28:01;101817.38;;;21.97;49.32
71772;BME280;59606;52.138;5.424;2022-07-29T10:30:28;101817.78;;;22.02;49.47
71772;BME280;59606;52.138;5.424;2022-07-29T10:36:04;101811.22;;;22.46;48.41
71772;BME280;59606;52.138;5.424;2022-07-29T10:38:39;101816.00;;;22.72;47.33
71772;BME280;59606;52.138;5.424;2022-07-29T10:41:36;101812.50;;;22.81;46.83
71772;BME280;59606;52.138;5.424;2022-07-29T10:44:21;101823.69;;;22.85;46.49
71772;BME280;59606;52.138;5.424;2022-07-29T10:46:50;101826.63;;;22.91;49.58
71772;BME280;59606;52.138;5.424;2022-07-29T10:49:26;101819.91;;;23.16;48.33
71772;BME280;59606;52.138;5.424;2022-07-29T10:52:06;101813.28;;;23.30;47.21
71772;BME280;59606;52.138;5.424;2022-07-29T10:59:51;101816.19;;;23.46;47.07
71772;BME280;59606;52.138;5.424;2022-07-29T11:07:39;101802.53;;;23.79;47.80
71772;BME280;59606;52.138;5.424;2022-07-29T11:15:12;101798.31;;;23.86;48.00
71772;BME280;59606;52.138;5.424;2022-07-29T11:20:46;101798.78;;;23.99;47.51
71772;BME280;59606;52.138;5.424;2022-07-29T11:23:28;101799.50;;;24.01;46.40
71772;BME280;59606;52.138;5.424;2022-07-29T11:31:43;101805.50;;;24.21;45.75
71772;BME280;59606;52.138;5.424;2022-07-29T11:34:31;101800.81;;;24.15;45.99
71772;BME280;59606;52.138;5.424;2022-07-29T11:50:26;101799.69;;;24.35;43.17
71772;BME280;59606;52.138;5.424;2022-07-29T11:52:53;101800.53;;;24.36;43.24
71772;BME280;59606;52.138;5.424;2022-07-29T11:55:22;101802.16;;;24.46;42.98
71772;BME280;59606;52.138;5.424;2022-07-29T11:57:59;101798.59;;;24.56;44.02
71772;BME280;59606;52.138;5.424;2022-07-29T12:00:46;101794.84;;;24.66;43.14
71772;BME280;59606;52.138;5.424;2022-07-29T12:03:24;101801.25;;;24.74;43.56
71772;BME280;59606;52.138;5.424;2022-07-29T12:06:00;101797.28;;;24.78;42.86
71772;BME280;59606;52.138;5.424;2022-07-29T12:08:27;101803.69;;;24.85;42.82
71772;BME280;59606;52.138;5.424;2022-07-29T12:10:54;101796.00;;;24.82;43.26
71772;BME280;59606;52.138;5.424;2022-07-29T12:13:21;101795.53;;;24.86;42.14
71772;BME280;59606;52.138;5.424;2022-07-29T12:16:02;101793.09;;;24.93;43.38
71772;BME280;59606;52.138;5.424;2022-07-29T12:18:29;101795.13;;;24.99;43.07
71772;BME280;59606;52.138;5.424;2022-07-29T12:20:57;101802.88;;;25.10;42.70
71772;BME280;59606;52.138;5.424;2022-07-29T12:23:29;101800.63;;;25.15;42.74
71772;BME280;59606;52.138;5.424;2022-07-29T12:26:03;101799.69;;;25.07;42.11
71772;BME280;59606;52.138;5.424;2022-07-29T12:28:37;101803.47;;;25.04;43.34
71772;BME280;59606;52.138;5.424;2022-07-29T12:31:04;101800.81;;;25.22;42.56
71772;BME280;59606;52.138;5.424;2022-07-29T12:33:33;101795.50;;;25.22;42.21
71772;BME280;59606;52.138;5.424;2022-07-29T12:36:01;101801.69;;;25.31;41.68
71772;BME280;59606;52.138;5.424;2022-07-29T12:38:36;101798.41;;;25.37;44.49
71772;BME280;59606;52.138;5.424;2022-07-29T12:41:06;101805.78;;;25.43;42.60
71772;BME280;59606;52.138;5.424;2022-07-29T12:43:32;101807.56;;;25.34;42.11
71772;BME280;59606;52.138;5.424;2022-07-29T12:46:14;101803.13;;;25.43;42.98
71772;BME280;59606;52.138;5.424;2022-07-29T12:48:42;101802.53;;;25.57;42.95
71772;BME280;59606;52.138;5.424;2022-07-29T12:51:10;101799.03;;;25.57;42.30
71772;BME280;59606;52.138;5.424;2022-07-29T12:53:38;101791.34;;;25.54;42.03
71772;BME280;59606;52.138;5.424;2022-07-29T12:56:05;101793.84;;;25.55;42.29
71772;BME280;59606;52.138;5.424;2022-07-29T12:58:52;101790.59;;;25.70;42.05
71772;BME280;59606;52.138;5.424;2022-07-29T13:01:19;101793.28;;;25.78;41.35
71772;BME280;59606;52.138;5.424;2022-07-29T13:03:52;101785.84;;;25.90;41.62
71772;BME280;59606;52.138;5.424;2022-07-29T13:14:30;101788.16;;;25.84;41.07
71772;BME280;59606;52.138;5.424;2022-07-29T13:19:41;101794.06;;;25.96;41.49
71772;BME280;59606;52.138;5.424;2022-07-29T13:22:16;101790.19;;;25.99;40.50
71772;BME280;59606;52.138;5.424;2022-07-29T13:25:00;101790.56;;;26.04;41.43
71772;BME280;59606;52.138;5.424;2022-07-29T13:27:31;101783.59;;;26.19;40.68
71772;BME280;59606;52.138;5.424;2022-07-29T13:30:00;101782.09;;;26.17;40.86
71772;BME280;59606;52.138;5.424;2022-07-29T13:32:29;101785.41;;;26.10;40.73
71772;BME280;59606;52.138;5.424;2022-07-29T13:35:00;101783.56;;;26.11;41.03
71772;BME280;59606;52.138;5.424;2022-07-29T13:37:31;101790.09;;;26.17;41.67
71772;BME280;59606;52.138;5.424;2022-07-29T13:40:00;101781.44;;;26.31;40.89
71772;BME280;59606;52.138;5.424;2022-07-29T13:42:29;101782.09;;;26.25;40.87
71772;BME280;59606;52.138;5.424;2022-07-29T13:44:55;101776.94;;;26.23;42.23
71772;BME280;59606;52.138;5.424;2022-07-29T13:47:22;101785.13;;;26.30;41.17
71772;BME280;59606;52.138;5.424;2022-07-29T13:50:00;101783.63;;;26.44;41.55
71772;BME280;59606;52.138;5.424;2022-07-29T13:52:27;101778.81;;;26.55;41.46
71772;BME280;59606;52.138;5.424;2022-07-29T13:54:55;101783.03;;;26.66;41.26
71772;BME280;59606;52.138;5.424;2022-07-29T13:57:22;101777.34;;;26.61;40.81
71772;BME280;59606;52.138;5.424;2022-07-29T13:59:48;101780.50;;;26.65;40.58
71772;BME280;59606;52.138;5.424;2022-07-29T14:02:20;101779.16;;;26.69;40.48
71772;BME280;59606;52.138;5.424;2022-07-29T14:04:50;101778.34;;;26.60;40.54
71772;BME280;59606;52.138;5.424;2022-07-29T14:07:17;101776.66;;;26.59;41.81
71772;BME280;59606;52.138;5.424;2022-07-29T14:09:43;101776.66;;;26.59;40.80
71772;BME280;59606;52.138;5.424;2022-07-29T14:12:11;101780.34;;;26.50;40.76
71772;BME280;59606;52.138;5.424;2022-07-29T14:14:38;101776.16;;;26.55;40.67